sensor_id;sensor_type;location;lat;lon;timestamp;P1;durP1;ratioP1;P2;durP2;ratioP2
61407;SDS011;47274;43.054;25.146;2023-07-28T00:00:38;4.47;;;2.70;;
61407;SDS011;47274;43.054;25.146;2023-07-28T00:03:04;5.45;;;2.70;;
61407;SDS011;47274;43.054;25.146;2023-07-28T00:05:32;6.32;;;2.83;;
61407;SDS011;47274;43.054;25.146;2023-07-28T00:07:58;4.72;;;2.60;;
61407;SDS011;47274;43.054;25.146;2023-07-28T00:10:29;7.93;;;2.95;;
61407;SDS011;47274;43.054;25.146;2023-07-28T00:12:57;5.70;;;2.88;;
61407;SDS011;47274;43.054;25.146;2023-07-28T00:15:24;4.80;;;3.05;;
61407;SDS011;47274;43.054;25.146;2023-07-28T00:17:52;6.00;;;2.88;;
61407;SDS011;47274;43.054;25.146;2023-07-28T00:20:18;3.30;;;2.70;;
61407;SDS011;47274;43.054;25.146;2023-07-28T00:22:44;4.50;;;2.90;;
61407;SDS011;47274;43.054;25.146;2023-07-28T00:25:10;5.47;;;2.85;;
61407;SDS011;47274;43.054;25.146;2023-07-28T00:27:36;3.63;;;2.90;;
61407;SDS011;47274;43.054;25.146;2023-07-28T00:30:04;2.95;;;2.60;;
61407;SDS011;47274;43.054;25.146;2023-07-28T00:32:40;7.68;;;3.17;;
61407;SDS011;47274;43.054;25.146;2023-07-28T00:35:14;5.47;;;2.80;;
61407;SDS011;47274;43.054;25.146;2023-07-28T00:37:40;5.97;;;3.10;;
61407;SDS011;47274;43.054;25.146;2023-07-28T00:40:14;6.07;;;2.70;;
61407;SDS011;47274;43.054;25.146;2023-07-28T00:42:40;3.90;;;2.70;;
61407;SDS011;47274;43.054;25.146;2023-07-28T00:45:06;4.65;;;2.90;;
61407;SDS011;47274;43.054;25.146;2023-07-28T00:47:33;3.60;;;2.67;;
61407;SDS011;47274;43.054;25.146;2023-07-28T00:50:01;3.05;;;2.40;;
61407;SDS011;47274;43.054;25.146;2023-07-28T00:52:31;6.38;;;3.13;;
61407;SDS011;47274;43.054;25.146;2023-07-28T00:54:57;4.95;;;2.90;;
61407;SDS011;47274;43.054;25.146;2023-07-28T00:57:29;3.25;;;2.70;;
61407;SDS011;47274;43.054;25.146;2023-07-28T00:59:55;4.20;;;2.72;;
61407;SDS011;47274;43.054;25.146;2023-07-28T01:02:21;7.32;;;2.70;;
61407;SDS011;47274;43.054;25.146;2023-07-28T01:04:47;6.20;;;2.85;;
61407;SDS011;47274;43.054;25.146;2023-07-28T01:07:26;4.63;;;2.63;;
61407;SDS011;47274;43.054;25.146;2023-07-28T01:10:10;5.75;;;2.97;;
61407;SDS011;47274;43.054;25.146;2023-07-28T01:12:40;3.40;;;2.40;;
61407;SDS011;47274;43.054;25.146;2023-07-28T01:15:06;4.47;;;2.60;;
61407;SDS011;47274;43.054;25.146;2023-07-28T01:17:34;3.17;;;2.80;;
61407;SDS011;47274;43.054;25.146;2023-07-28T01:20:00;5.30;;;2.80;;
61407;SDS011;47274;43.054;25.146;2023-07-28T01:28:13;6.82;;;2.88;;
61407;SDS011;47274;43.054;25.146;2023-07-28T01:30:42;4.45;;;2.88;;
61407;SDS011;47274;43.054;25.146;2023-07-28T01:33:08;3.90;;;2.70;;
61407;SDS011;47274;43.054;25.146;2023-07-28T01:35:35;3.67;;;2.60;;
61407;SDS011;47274;43.054;25.146;2023-07-28T01:38:03;5.15;;;2.88;;
61407;SDS011;47274;43.054;25.146;2023-07-28T01:40:29;8.18;;;3.20;;
61407;SDS011;47274;43.054;25.146;2023-07-28T01:42:56;3.63;;;2.63;;
61407;SDS011;47274;43.054;25.146;2023-07-28T01:45:21;4.03;;;2.70;;
61407;SDS011;47274;43.054;25.146;2023-07-28T01:47:47;6.18;;;2.85;;
61407;SDS011;47274;43.054;25.146;2023-07-28T01:50:13;7.15;;;2.90;;
61407;SDS011;47274;43.054;25.146;2023-07-28T01:52:39;7.05;;;3.03;;
61407;SDS011;47274;43.054;25.146;2023-07-28T01:55:05;3.65;;;2.60;;
61407;SDS011;47274;43.054;25.146;2023-07-28T01:57:34;5.72;;;2.75;;
61407;SDS011;47274;43.054;25.146;2023-07-28T02:00:01;3.00;;;2.70;;
61407;SDS011;47274;43.054;25.146;2023-07-28T02:02:38;4.60;;;2.97;;
61407;SDS011;47274;43.054;25.146;2023-07-28T02:05:06;4.57;;;2.92;;
61407;SDS011;47274;43.054;25.146;2023-07-28T02:07:38;5.85;;;2.97;;
61407;SDS011;47274;43.054;25.146;2023-07-28T02:10:15;5.95;;;3.20;;
61407;SDS011;47274;43.054;25.146;2023-07-28T02:12:43;5.05;;;2.95;;
61407;SDS011;47274;43.054;25.146;2023-07-28T02:15:16;8.05;;;3.10;;
61407;SDS011;47274;43.054;25.146;2023-07-28T02:17:45;6.13;;;3.00;;
61407;SDS011;47274;43.054;25.146;2023-07-28T02:20:16;6.88;;;3.13;;
61407;SDS011;47274;43.054;25.146;2023-07-28T02:22:43;3.10;;;2.72;;
61407;SDS011;47274;43.054;25.146;2023-07-28T02:25:09;3.25;;;2.92;;
61407;SDS011;47274;43.054;25.146;2023-07-28T02:27:38;6.13;;;3.10;;
61407;SDS011;47274;43.054;25.146;2023-07-28T02:30:16;5.25;;;3.00;;
61407;SDS011;47274;43.054;25.146;2023-07-28T02:32:42;5.18;;;3.17;;
61407;SDS011;47274;43.054;25.146;2023-07-28T02:35:08;5.80;;;2.72;;
61407;SDS011;47274;43.054;25.146;2023-07-28T02:37:37;5.90;;;3.28;;
61407;SDS011;47274;43.054;25.146;2023-07-28T02:40:05;5.22;;;3.05;;
61407;SDS011;47274;43.054;25.146;2023-07-28T02:42:31;7.13;;;3.15;;
61407;SDS011;47274;43.054;25.146;2023-07-28T02:44:59;6.93;;;3.25;;
61407;SDS011;47274;43.054;25.146;2023-07-28T02:47:25;6.45;;;3.30;;
61407;SDS011;47274;43.054;25.146;2023-07-28T02:49:51;8.73;;;3.28;;
61407;SDS011;47274;43.054;25.146;2023-07-28T02:52:20;4.85;;;3.20;;
61407;SDS011;47274;43.054;25.146;2023-07-28T02:54:49;6.47;;;3.30;;
61407;SDS011;47274;43.054;25.146;2023-07-28T02:57:15;3.55;;;2.80;;
61407;SDS011;47274;43.054;25.146;2023-07-28T02:59:49;6.15;;;3.15;;
61407;SDS011;47274;43.054;25.146;2023-07-28T03:02:15;4.50;;;2.95;;
61407;SDS011;47274;43.054;25.146;2023-07-28T03:04:41;6.78;;;3.38;;
61407;SDS011;47274;43.054;25.146;2023-07-28T03:07:21;5.55;;;3.22;;
61407;SDS011;47274;43.054;25.146;2023-07-28T03:09:54;6.13;;;3.00;;
61407;SDS011;47274;43.054;25.146;2023-07-28T03:12:26;5.22;;;3.50;;
61407;SDS011;47274;43.054;25.146;2023-07-28T03:14:52;4.65;;;2.97;;
61407;SDS011;47274;43.054;25.146;2023-07-28T03:17:24;3.30;;;2.95;;
61407;SDS011;47274;43.054;25.146;2023-07-28T03:19:50;5.38;;;3.30;;
61407;SDS011;47274;43.054;25.146;2023-07-28T03:22:16;4.10;;;2.88;;
61407;SDS011;47274;43.054;25.146;2023-07-28T03:24:54;8.75;;;3.22;;
61407;SDS011;47274;43.054;25.146;2023-07-28T03:27:30;6.03;;;3.20;;
61407;SDS011;47274;43.054;25.146;2023-07-28T03:30:07;4.10;;;3.13;;
61407;SDS011;47274;43.054;25.146;2023-07-28T03:32:45;6.43;;;3.20;;
61407;SDS011;47274;43.054;25.146;2023-07-28T03:35:11;5.90;;;2.70;;
61407;SDS011;47274;43.054;25.146;2023-07-28T03:37:51;4.90;;;3.10;;
61407;SDS011;47274;43.054;25.146;2023-07-28T03:40:17;6.68;;;3.10;;
61407;SDS011;47274;43.054;25.146;2023-07-28T03:42:48;5.22;;;2.97;;
61407;SDS011;47274;43.054;25.146;2023-07-28T03:45:14;5.68;;;2.90;;
61407;SDS011;47274;43.054;25.146;2023-07-28T03:47:42;5.13;;;3.25;;
61407;SDS011;47274;43.054;25.146;2023-07-28T03:50:17;5.50;;;2.83;;
61407;SDS011;47274;43.054;25.146;2023-07-28T03:52:54;5.38;;;2.70;;
61407;SDS011;47274;43.054;25.146;2023-07-28T03:55:23;4.75;;;2.90;;
61407;SDS011;47274;43.054;25.146;2023-07-28T03:57:51;4.43;;;2.88;;
61407;SDS011;47274;43.054;25.146;2023-07-28T04:00:19;3.67;;;2.60;;
61407;SDS011;47274;43.054;25.146;2023-07-28T04:02:46;3.97;;;2.97;;
61407;SDS011;47274;43.054;25.146;2023-07-28T04:05:12;7.35;;;2.80;;
61407;SDS011;47274;43.054;25.146;2023-07-28T04:07:41;3.83;;;2.58;;
61407;SDS011;47274;43.054;25.146;2023-07-28T04:10:07;5.57;;;2.95;;
61407;SDS011;47274;43.054;25.146;2023-07-28T04:12:36;5.82;;;3.05;;
61407;SDS011;47274;43.054;25.146;2023-07-28T04:15:01;4.38;;;2.90;;
61407;SDS011;47274;43.054;25.146;2023-07-28T04:17:31;5.47;;;3.30;;
61407;SDS011;47274;43.054;25.146;2023-07-28T04:19:59;7.18;;;3.30;;
61407;SDS011;47274;43.054;25.146;2023-07-28T04:22:41;4.70;;;3.03;;
61407;SDS011;47274;43.054;25.146;2023-07-28T04:25:12;4.55;;;2.80;;
61407;SDS011;47274;43.054;25.146;2023-07-28T04:27:53;5.40;;;2.70;;
61407;SDS011;47274;43.054;25.146;2023-07-28T04:30:21;4.60;;;2.70;;
61407;SDS011;47274;43.054;25.146;2023-07-28T04:32:52;5.82;;;3.03;;
61407;SDS011;47274;43.054;25.146;2023-07-28T04:35:23;8.57;;;3.00;;
61407;SDS011;47274;43.054;25.146;2023-07-28T04:38:15;4.38;;;2.90;;
61407;SDS011;47274;43.054;25.146;2023-07-28T04:40:54;5.40;;;3.45;;
61407;SDS011;47274;43.054;25.146;2023-07-28T04:43:26;4.15;;;3.00;;
61407;SDS011;47274;43.054;25.146;2023-07-28T04:45:55;4.43;;;2.60;;
61407;SDS011;47274;43.054;25.146;2023-07-28T04:48:22;3.67;;;2.88;;
61407;SDS011;47274;43.054;25.146;2023-07-28T04:50:49;2.60;;;2.40;;
61407;SDS011;47274;43.054;25.146;2023-07-28T04:53:50;5.05;;;2.83;;
61407;SDS011;47274;43.054;25.146;2023-07-28T04:56:20;4.28;;;3.00;;
61407;SDS011;47274;43.054;25.146;2023-07-28T04:58:46;2.78;;;2.53;;
61407;SDS011;47274;43.054;25.146;2023-07-28T05:01:12;4.80;;;2.97;;
61407;SDS011;47274;43.054;25.146;2023-07-28T05:03:39;4.70;;;2.75;;
61407;SDS011;47274;43.054;25.146;2023-07-28T05:06:21;3.60;;;2.30;;
61407;SDS011;47274;43.054;25.146;2023-07-28T05:08:47;5.18;;;2.70;;
61407;SDS011;47274;43.054;25.146;2023-07-28T05:11:19;3.72;;;2.10;;
61407;SDS011;47274;43.054;25.146;2023-07-28T05:13:45;4.95;;;2.80;;
61407;SDS011;47274;43.054;25.146;2023-07-28T05:16:11;3.42;;;2.70;;
61407;SDS011;47274;43.054;25.146;2023-07-28T05:19:06;3.90;;;2.78;;
61407;SDS011;47274;43.054;25.146;2023-07-28T05:21:51;4.88;;;2.60;;
61407;SDS011;47274;43.054;25.146;2023-07-28T05:24:21;3.47;;;2.55;;
61407;SDS011;47274;43.054;25.146;2023-07-28T05:26:46;4.72;;;2.58;;
61407;SDS011;47274;43.054;25.146;2023-07-28T05:29:13;3.95;;;2.95;;
61407;SDS011;47274;43.054;25.146;2023-07-28T05:31:39;5.35;;;2.70;;
61407;SDS011;47274;43.054;25.146;2023-07-28T05:34:14;5.00;;;2.50;;
61407;SDS011;47274;43.054;25.146;2023-07-28T05:36:40;5.57;;;2.55;;
61407;SDS011;47274;43.054;25.146;2023-07-28T05:39:07;5.53;;;2.88;;
61407;SDS011;47274;43.054;25.146;2023-07-28T05:41:40;6.50;;;2.75;;
61407;SDS011;47274;43.054;25.146;2023-07-28T05:44:09;3.10;;;2.40;;
61407;SDS011;47274;43.054;25.146;2023-07-28T05:46:37;4.10;;;2.85;;
61407;SDS011;47274;43.054;25.146;2023-07-28T05:49:06;8.33;;;3.03;;
61407;SDS011;47274;43.054;25.146;2023-07-28T05:51:32;3.55;;;2.60;;
61407;SDS011;47274;43.054;25.146;2023-07-28T05:54:01;3.13;;;2.70;;
61407;SDS011;47274;43.054;25.146;2023-07-28T05:56:27;4.50;;;2.78;;
61407;SDS011;47274;43.054;25.146;2023-07-28T05:58:54;3.25;;;2.47;;
61407;SDS011;47274;43.054;25.146;2023-07-28T06:01:22;3.40;;;2.55;;
61407;SDS011;47274;43.054;25.146;2023-07-28T06:04:10;4.07;;;2.45;;
61407;SDS011;47274;43.054;25.146;2023-07-28T06:06:44;3.90;;;2.83;;
61407;SDS011;47274;43.054;25.146;2023-07-28T06:09:14;6.22;;;2.90;;
61407;SDS011;47274;43.054;25.146;2023-07-28T06:11:44;5.00;;;2.53;;
61407;SDS011;47274;43.054;25.146;2023-07-28T06:14:13;4.00;;;2.60;;
61407;SDS011;47274;43.054;25.146;2023-07-28T06:16:44;4.18;;;2.55;;
61407;SDS011;47274;43.054;25.146;2023-07-28T06:19:14;5.20;;;2.80;;
61407;SDS011;47274;43.054;25.146;2023-07-28T06:21:42;6.00;;;2.65;;
61407;SDS011;47274;43.054;25.146;2023-07-28T06:24:11;6.93;;;2.95;;
61407;SDS011;47274;43.054;25.146;2023-07-28T06:26:48;4.07;;;2.53;;
61407;SDS011;47274;43.054;25.146;2023-07-28T06:29:18;3.80;;;2.70;;
61407;SDS011;47274;43.054;25.146;2023-07-28T06:31:51;3.47;;;2.60;;
61407;SDS011;47274;43.054;25.146;2023-07-28T06:34:22;7.05;;;2.55;;
61407;SDS011;47274;43.054;25.146;2023-07-28T06:36:51;3.97;;;2.60;;
61407;SDS011;47274;43.054;25.146;2023-07-28T06:39:17;7.57;;;2.90;;
61407;SDS011;47274;43.054;25.146;2023-07-28T06:41:43;3.05;;;2.40;;
61407;SDS011;47274;43.054;25.146;2023-07-28T06:44:11;6.05;;;2.67;;
61407;SDS011;47274;43.054;25.146;2023-07-28T06:46:37;8.07;;;3.10;;
61407;SDS011;47274;43.054;25.146;2023-07-28T06:49:05;9.32;;;2.83;;
61407;SDS011;47274;43.054;25.146;2023-07-28T06:51:31;4.97;;;2.85;;
61407;SDS011;47274;43.054;25.146;2023-07-28T06:53:57;3.10;;;2.50;;
61407;SDS011;47274;43.054;25.146;2023-07-28T06:56:26;4.97;;;2.50;;
61407;SDS011;47274;43.054;25.146;2023-07-28T06:58:52;11.52;;;2.88;;
61407;SDS011;47274;43.054;25.146;2023-07-28T07:01:18;5.95;;;2.92;;
61407;SDS011;47274;43.054;25.146;2023-07-28T07:03:44;3.55;;;2.20;;
61407;SDS011;47274;43.054;25.146;2023-07-28T07:06:09;5.28;;;2.63;;
61407;SDS011;47274;43.054;25.146;2023-07-28T07:08:35;5.40;;;2.50;;
61407;SDS011;47274;43.054;25.146;2023-07-28T07:11:02;6.95;;;3.05;;
61407;SDS011;47274;43.054;25.146;2023-07-28T07:13:28;3.97;;;2.40;;
61407;SDS011;47274;43.054;25.146;2023-07-28T07:16:03;5.20;;;2.88;;
61407;SDS011;47274;43.054;25.146;2023-07-28T07:18:39;3.67;;;2.42;;
61407;SDS011;47274;43.054;25.146;2023-07-28T07:21:09;4.32;;;2.72;;
61407;SDS011;47274;43.054;25.146;2023-07-28T07:23:35;5.93;;;2.78;;
61407;SDS011;47274;43.054;25.146;2023-07-28T07:26:05;3.80;;;2.55;;
61407;SDS011;47274;43.054;25.146;2023-07-28T07:28:30;4.18;;;2.53;;
61407;SDS011;47274;43.054;25.146;2023-07-28T07:30:56;3.03;;;2.50;;
61407;SDS011;47274;43.054;25.146;2023-07-28T07:33:23;4.18;;;2.38;;
61407;SDS011;47274;43.054;25.146;2023-07-28T07:35:53;5.05;;;2.38;;
61407;SDS011;47274;43.054;25.146;2023-07-28T07:38:19;5.35;;;2.20;;
61407;SDS011;47274;43.054;25.146;2023-07-28T07:40:50;2.78;;;2.33;;
61407;SDS011;47274;43.054;25.146;2023-07-28T07:43:19;3.65;;;2.10;;
61407;SDS011;47274;43.054;25.146;2023-07-28T07:45:46;2.30;;;2.10;;
61407;SDS011;47274;43.054;25.146;2023-07-28T07:48:19;3.08;;;2.40;;
61407;SDS011;47274;43.054;25.146;2023-07-28T07:50:45;3.80;;;2.17;;
61407;SDS011;47274;43.054;25.146;2023-07-28T07:53:18;4.28;;;2.33;;
61407;SDS011;47274;43.054;25.146;2023-07-28T07:55:47;4.10;;;2.15;;
61407;SDS011;47274;43.054;25.146;2023-07-28T07:58:14;4.75;;;1.90;;
61407;SDS011;47274;43.054;25.146;2023-07-28T08:00:43;2.47;;;2.20;;
61407;SDS011;47274;43.054;25.146;2023-07-28T08:03:09;3.05;;;1.92;;
61407;SDS011;47274;43.054;25.146;2023-07-28T08:05:35;3.65;;;1.67;;
61407;SDS011;47274;43.054;25.146;2023-07-28T08:08:01;2.50;;;1.65;;
61407;SDS011;47274;43.054;25.146;2023-07-28T08:10:27;1.60;;;1.30;;
61407;SDS011;47274;43.054;25.146;2023-07-28T08:12:53;4.85;;;1.58;;
61407;SDS011;47274;43.054;25.146;2023-07-28T08:15:20;4.82;;;1.90;;
61407;SDS011;47274;43.054;25.146;2023-07-28T08:17:46;2.50;;;1.95;;
61407;SDS011;47274;43.054;25.146;2023-07-28T08:20:12;3.75;;;1.70;;
61407;SDS011;47274;43.054;25.146;2023-07-28T08:22:38;2.42;;;1.33;;
61407;SDS011;47274;43.054;25.146;2023-07-28T08:25:04;2.03;;;1.50;;
61407;SDS011;47274;43.054;25.146;2023-07-28T08:27:33;2.92;;;1.30;;
61407;SDS011;47274;43.054;25.146;2023-07-28T08:29:59;1.75;;;1.60;;
61407;SDS011;47274;43.054;25.146;2023-07-28T08:32:25;4.18;;;1.63;;
61407;SDS011;47274;43.054;25.146;2023-07-28T08:34:53;1.58;;;1.48;;
61407;SDS011;47274;43.054;25.146;2023-07-28T08:37:19;1.55;;;1.45;;
61407;SDS011;47274;43.054;25.146;2023-07-28T08:39:51;2.83;;;1.63;;
61407;SDS011;47274;43.054;25.146;2023-07-28T08:42:16;1.65;;;1.55;;
61407;SDS011;47274;43.054;25.146;2023-07-28T08:44:42;2.65;;;1.70;;
61407;SDS011;47274;43.054;25.146;2023-07-28T08:47:11;2.13;;;1.70;;
61407;SDS011;47274;43.054;25.146;2023-07-28T08:49:36;1.60;;;1.48;;
61407;SDS011;47274;43.054;25.146;2023-07-28T08:52:03;2.80;;;1.38;;
61407;SDS011;47274;43.054;25.146;2023-07-28T08:54:29;2.42;;;1.58;;
61407;SDS011;47274;43.054;25.146;2023-07-28T08:56:57;5.13;;;1.67;;
61407;SDS011;47274;43.054;25.146;2023-07-28T08:59:27;2.65;;;1.75;;
61407;SDS011;47274;43.054;25.146;2023-07-28T09:01:54;2.78;;;1.83;;
61407;SDS011;47274;43.054;25.146;2023-07-28T09:04:21;5.95;;;2.15;;
61407;SDS011;47274;43.054;25.146;2023-07-28T09:06:48;6.95;;;2.15;;
61407;SDS011;47274;43.054;25.146;2023-07-28T09:09:15;14.65;;;2.40;;
61407;SDS011;47274;43.054;25.146;2023-07-28T09:11:49;3.20;;;1.63;;
61407;SDS011;47274;43.054;25.146;2023-07-28T09:14:17;45.13;;;4.68;;
61407;SDS011;47274;43.054;25.146;2023-07-28T09:16:46;3.33;;;2.17;;
61407;SDS011;47274;43.054;25.146;2023-07-28T09:19:13;2.38;;;1.90;;
61407;SDS011;47274;43.054;25.146;2023-07-28T09:21:40;1.85;;;1.70;;
61407;SDS011;47274;43.054;25.146;2023-07-28T09:24:12;2.33;;;1.60;;
61407;SDS011;47274;43.054;25.146;2023-07-28T09:26:45;2.15;;;1.60;;
61407;SDS011;47274;43.054;25.146;2023-07-28T09:31:42;2.72;;;1.77;;
61407;SDS011;47274;43.054;25.146;2023-07-28T09:34:13;1.90;;;1.63;;
61407;SDS011;47274;43.054;25.146;2023-07-28T09:36:48;7.55;;;2.00;;
61407;SDS011;47274;43.054;25.146;2023-07-28T09:39:14;3.55;;;1.77;;
61407;SDS011;47274;43.054;25.146;2023-07-28T09:41:40;3.70;;;1.70;;
61407;SDS011;47274;43.054;25.146;2023-07-28T09:44:06;1.88;;;1.70;;
61407;SDS011;47274;43.054;25.146;2023-07-28T09:46:35;2.83;;;1.73;;
61407;SDS011;47274;43.054;25.146;2023-07-28T09:49:10;2.65;;;1.60;;
61407;SDS011;47274;43.054;25.146;2023-07-28T09:51:37;2.42;;;1.83;;
61407;SDS011;47274;43.054;25.146;2023-07-28T09:54:17;2.65;;;1.85;;
61407;SDS011;47274;43.054;25.146;2023-07-28T09:59:35;3.38;;;2.08;;
61407;SDS011;47274;43.054;25.146;2023-07-28T10:02:04;6.25;;;2.33;;
61407;SDS011;47274;43.054;25.146;2023-07-28T10:04:31;1.70;;;1.52;;
61407;SDS011;47274;43.054;25.146;2023-07-28T10:06:58;2.10;;;1.42;;
61407;SDS011;47274;43.054;25.146;2023-07-28T10:09:25;2.78;;;1.95;;
61407;SDS011;47274;43.054;25.146;2023-07-28T10:11:52;4.10;;;1.77;;
61407;SDS011;47274;43.054;25.146;2023-07-28T10:17:00;4.03;;;1.67;;
61407;SDS011;47274;43.054;25.146;2023-07-28T10:19:33;2.50;;;1.65;;
61407;SDS011;47274;43.054;25.146;2023-07-28T10:24:50;2.83;;;1.60;;
61407;SDS011;47274;43.054;25.146;2023-07-28T10:27:38;1.95;;;1.83;;
61407;SDS011;47274;43.054;25.146;2023-07-28T10:30:10;1.65;;;1.50;;
61407;SDS011;47274;43.054;25.146;2023-07-28T10:32:40;1.73;;;1.60;;
61407;SDS011;47274;43.054;25.146;2023-07-28T10:40:26;1.67;;;1.58;;
61407;SDS011;47274;43.054;25.146;2023-07-28T10:42:55;3.38;;;1.80;;
61407;SDS011;47274;43.054;25.146;2023-07-28T10:45:23;2.13;;;1.67;;
61407;SDS011;47274;43.054;25.146;2023-07-28T10:47:51;2.78;;;1.85;;
61407;SDS011;47274;43.054;25.146;2023-07-28T10:50:18;1.67;;;1.55;;
61407;SDS011;47274;43.054;25.146;2023-07-28T10:52:44;1.33;;;1.23;;
61407;SDS011;47274;43.054;25.146;2023-07-28T10:55:15;4.55;;;1.88;;
61407;SDS011;47274;43.054;25.146;2023-07-28T10:57:49;2.78;;;1.80;;
61407;SDS011;47274;43.054;25.146;2023-07-28T11:00:18;3.42;;;1.60;;
61407;SDS011;47274;43.054;25.146;2023-07-28T11:02:47;5.50;;;2.47;;
61407;SDS011;47274;43.054;25.146;2023-07-28T11:05:25;2.38;;;1.98;;
61407;SDS011;47274;43.054;25.146;2023-07-28T11:08:01;3.30;;;2.00;;
61407;SDS011;47274;43.054;25.146;2023-07-28T11:10:28;4.32;;;1.80;;
61407;SDS011;47274;43.054;25.146;2023-07-28T11:12:57;3.42;;;1.77;;
61407;SDS011;47274;43.054;25.146;2023-07-28T11:15:27;2.47;;;1.58;;
61407;SDS011;47274;43.054;25.146;2023-07-28T11:17:54;1.92;;;1.50;;
61407;SDS011;47274;43.054;25.146;2023-07-28T11:20:21;2.13;;;1.90;;
61407;SDS011;47274;43.054;25.146;2023-07-28T11:22:55;2.30;;;1.58;;
61407;SDS011;47274;43.054;25.146;2023-07-28T11:25:25;1.60;;;1.50;;
61407;SDS011;47274;43.054;25.146;2023-07-28T11:27:53;1.92;;;1.73;;
61407;SDS011;47274;43.054;25.146;2023-07-28T11:30:22;1.60;;;1.50;;
61407;SDS011;47274;43.054;25.146;2023-07-28T11:32:50;1.77;;;1.60;;
61407;SDS011;47274;43.054;25.146;2023-07-28T11:35:18;1.60;;;1.50;;
61407;SDS011;47274;43.054;25.146;2023-07-28T11:37:46;2.60;;;1.80;;
61407;SDS011;47274;43.054;25.146;2023-07-28T11:40:14;3.55;;;1.80;;
61407;SDS011;47274;43.054;25.146;2023-07-28T11:42:46;4.72;;;1.88;;
61407;SDS011;47274;43.054;25.146;2023-07-28T11:45:14;3.42;;;1.55;;
61407;SDS011;47274;43.054;25.146;2023-07-28T11:47:51;3.97;;;2.30;;
61407;SDS011;47274;43.054;25.146;2023-07-28T11:50:23;2.13;;;1.53;;
61407;SDS011;47274;43.054;25.146;2023-07-28T11:52:52;2.40;;;1.70;;
61407;SDS011;47274;43.054;25.146;2023-07-28T11:55:19;3.28;;;1.70;;
61407;SDS011;47274;43.054;25.146;2023-07-28T11:57:48;4.13;;;1.65;;
61407;SDS011;47274;43.054;25.146;2023-07-28T12:00:15;2.08;;;1.77;;
61407;SDS011;47274;43.054;25.146;2023-07-28T12:02:59;2.35;;;1.83;;
61407;SDS011;47274;43.054;25.146;2023-07-28T12:05:36;2.22;;;1.58;;
61407;SDS011;47274;43.054;25.146;2023-07-28T12:08:04;4.15;;;2.20;;
61407;SDS011;47274;43.054;25.146;2023-07-28T12:10:30;24.77;;;3.17;;
61407;SDS011;47274;43.054;25.146;2023-07-28T12:12:57;2.10;;;1.90;;
61407;SDS011;47274;43.054;25.146;2023-07-28T12:15:29;2.63;;;2.03;;
61407;SDS011;47274;43.054;25.146;2023-07-28T12:18:08;2.45;;;1.88;;
61407;SDS011;47274;43.054;25.146;2023-07-28T12:20:37;2.08;;;1.88;;
61407;SDS011;47274;43.054;25.146;2023-07-28T12:23:08;3.70;;;1.95;;
61407;SDS011;47274;43.054;25.146;2023-07-28T12:25:35;2.65;;;2.08;;
61407;SDS011;47274;43.054;25.146;2023-07-28T12:28:02;1.83;;;1.67;;
61407;SDS011;47274;43.054;25.146;2023-07-28T12:30:28;3.47;;;2.13;;
61407;SDS011;47274;43.054;25.146;2023-07-28T12:32:54;4.78;;;2.10;;
61407;SDS011;47274;43.054;25.146;2023-07-28T12:35:20;1.92;;;1.73;;
61407;SDS011;47274;43.054;25.146;2023-07-28T12:37:57;5.22;;;2.22;;
61407;SDS011;47274;43.054;25.146;2023-07-28T12:40:25;3.33;;;2.03;;
61407;SDS011;47274;43.054;25.146;2023-07-28T12:42:56;3.45;;;2.25;;
61407;SDS011;47274;43.054;25.146;2023-07-28T12:45:23;4.15;;;2.05;;
61407;SDS011;47274;43.054;25.146;2023-07-28T12:48:11;2.88;;;2.22;;
61407;SDS011;47274;43.054;25.146;2023-07-28T12:51:11;4.20;;;2.10;;
61407;SDS011;47274;43.054;25.146;2023-07-28T12:53:55;4.57;;;2.40;;
61407;SDS011;47274;43.054;25.146;2023-07-28T12:56:30;3.45;;;2.20;;
61407;SDS011;47274;43.054;25.146;2023-07-28T12:59:08;4.82;;;2.40;;
61407;SDS011;47274;43.054;25.146;2023-07-28T13:02:09;4.90;;;2.28;;
61407;SDS011;47274;43.054;25.146;2023-07-28T13:04:46;2.90;;;2.35;;
61407;SDS011;47274;43.054;25.146;2023-07-28T13:07:12;2.08;;;1.90;;
61407;SDS011;47274;43.054;25.146;2023-07-28T13:09:39;4.15;;;2.47;;
61407;SDS011;47274;43.054;25.146;2023-07-28T13:12:14;3.17;;;2.20;;
61407;SDS011;47274;43.054;25.146;2023-07-28T13:14:50;3.10;;;2.20;;
61407;SDS011;47274;43.054;25.146;2023-07-28T13:17:19;3.55;;;2.50;;
61407;SDS011;47274;43.054;25.146;2023-07-28T13:19:54;3.03;;;2.30;;
61407;SDS011;47274;43.054;25.146;2023-07-28T13:22:32;2.90;;;2.10;;
61407;SDS011;47274;43.054;25.146;2023-07-28T13:24:58;2.30;;;2.10;;
61407;SDS011;47274;43.054;25.146;2023-07-28T13:27:28;5.10;;;2.58;;
61407;SDS011;47274;43.054;25.146;2023-07-28T13:29:54;8.20;;;2.17;;
61407;SDS011;47274;43.054;25.146;2023-07-28T13:32:24;4.45;;;2.00;;
61407;SDS011;47274;43.054;25.146;2023-07-28T13:34:51;4.33;;;1.90;;
61407;SDS011;47274;43.054;25.146;2023-07-28T13:37:18;2.72;;;2.10;;
61407;SDS011;47274;43.054;25.146;2023-07-28T13:39:45;4.28;;;2.50;;
61407;SDS011;47274;43.054;25.146;2023-07-28T13:42:10;2.90;;;2.45;;
61407;SDS011;47274;43.054;25.146;2023-07-28T13:44:37;2.38;;;1.90;;
61407;SDS011;47274;43.054;25.146;2023-07-28T13:47:06;5.20;;;2.17;;
61407;SDS011;47274;43.054;25.146;2023-07-28T13:49:32;2.42;;;2.08;;
61407;SDS011;47274;43.054;25.146;2023-07-28T13:52:01;2.10;;;1.90;;
61407;SDS011;47274;43.054;25.146;2023-07-28T13:54:28;1.92;;;1.60;;
61407;SDS011;47274;43.054;25.146;2023-07-28T13:56:54;2.05;;;1.85;;
61407;SDS011;47274;43.054;25.146;2023-07-28T13:59:19;2.55;;;2.00;;
61407;SDS011;47274;43.054;25.146;2023-07-28T14:01:45;2.30;;;2.10;;
61407;SDS011;47274;43.054;25.146;2023-07-28T14:04:11;3.55;;;2.10;;
61407;SDS011;47274;43.054;25.146;2023-07-28T14:06:37;2.40;;;1.90;;
61407;SDS011;47274;43.054;25.146;2023-07-28T14:09:03;3.75;;;1.90;;
61407;SDS011;47274;43.054;25.146;2023-07-28T14:11:29;1.98;;;1.70;;
61407;SDS011;47274;43.054;25.146;2023-07-28T14:13:54;3.40;;;2.17;;
61407;SDS011;47274;43.054;25.146;2023-07-28T14:16:20;3.20;;;2.13;;
61407;SDS011;47274;43.054;25.146;2023-07-28T14:18:46;5.40;;;2.30;;
61407;SDS011;47274;43.054;25.146;2023-07-28T14:21:13;4.72;;;1.95;;
61407;SDS011;47274;43.054;25.146;2023-07-28T14:23:42;3.58;;;2.30;;
61407;SDS011;47274;43.054;25.146;2023-07-28T14:26:08;2.20;;;2.00;;
61407;SDS011;47274;43.054;25.146;2023-07-28T14:28:33;2.72;;;2.15;;
61407;SDS011;47274;43.054;25.146;2023-07-28T14:30:59;3.70;;;2.05;;
61407;SDS011;47274;43.054;25.146;2023-07-28T14:33:26;2.63;;;1.90;;
61407;SDS011;47274;43.054;25.146;2023-07-28T14:35:51;2.45;;;2.03;;
61407;SDS011;47274;43.054;25.146;2023-07-28T14:38:17;3.85;;;2.00;;
61407;SDS011;47274;43.054;25.146;2023-07-28T14:40:44;2.42;;;1.92;;
61407;SDS011;47274;43.054;25.146;2023-07-28T14:43:14;2.92;;;2.35;;
61407;SDS011;47274;43.054;25.146;2023-07-28T14:45:41;1.77;;;1.67;;
61407;SDS011;47274;43.054;25.146;2023-07-28T14:48:07;3.00;;;2.05;;
61407;SDS011;47274;43.054;25.146;2023-07-28T14:50:33;2.78;;;2.10;;
61407;SDS011;47274;43.054;25.146;2023-07-28T14:52:59;2.83;;;2.08;;
61407;SDS011;47274;43.054;25.146;2023-07-28T14:55:28;2.30;;;2.10;;
61407;SDS011;47274;43.054;25.146;2023-07-28T14:57:53;3.13;;;2.22;;
61407;SDS011;47274;43.054;25.146;2023-07-28T15:00:19;4.25;;;2.55;;
61407;SDS011;47274;43.054;25.146;2023-07-28T15:02:45;3.33;;;2.35;;
61407;SDS011;47274;43.054;25.146;2023-07-28T15:05:11;4.07;;;2.35;;
61407;SDS011;47274;43.054;25.146;2023-07-28T15:07:36;3.50;;;1.65;;